Time;durP1;ratioP1;P1;durP2;ratioP2;P2;SDS_P1;SDS_P2;PMS_P1;PMS_P2;Temp;Humidity;BMP_temperature;BMP_pressure;BME280_temperature;BME280_humidity;BME280_pressure;Samples;Min_cycle;Max_cycle;Signal;HPM_P1;HPM_P2
2022/06/17 00:00:54;;;;;;;1.85;0.88;;;13.80;99.90;;;;;;5039037;28;20133;-79
2022/06/17 00:03:25;;;;;;;4.57;1.05;;;13.70;99.90;;;;;;5044552;28;20148;-78
2022/06/17 00:05:53;;;;;;;1.45;1.35;;;13.70;99.90;;;;;;5031329;28;20137;-78
2022/06/17 00:08:25;;;;;;;2.25;1.13;;;13.80;99.90;;;;;;5030197;28;20052;-78
2022/06/17 00:10:53;;;;;;;0.95;0.90;;;13.80;99.90;;;;;;5031307;28;20081;-79
2022/06/17 00:13:22;;;;;;;2.30;1.00;;;13.80;99.90;;;;;;5046843;28;20072;-78
2022/06/17 00:15:49;;;;;;;1.05;0.80;;;13.80;99.90;;;;;;5032524;28;20044;-78
2022/06/17 00:18:18;;;;;;;0.70;0.70;;;13.80;99.90;;;;;;5054603;28;20040;-79
2022/06/17 00:20:51;;;;;;;1.98;0.93;;;13.80;99.90;;;;;;5051951;28;20495;-78
2022/06/17 00:23:21;;;;;;;1.33;1.20;;;13.90;99.90;;;;;;5047305;28;20049;-79
2022/06/17 00:25:50;;;;;;;2.58;1.10;;;13.90;99.90;;;;;;5048525;28;20051;-78
2022/06/17 00:28:20;;;;;;;2.08;0.90;;;13.90;99.90;;;;;;5051644;28;20511;-78
2022/06/17 00:30:48;;;;;;;0.70;0.70;;;13.80;99.90;;;;;;5039545;28;20060;-79
2022/06/17 00:33:17;;;;;;;2.35;0.80;;;13.80;99.90;;;;;;5049316;28;20679;-78
2022/06/17 00:35:51;;;;;;;2.70;0.95;;;13.70;99.90;;;;;;5049757;28;20053;-78
2022/06/17 00:38:22;;;;;;;2.15;0.77;;;13.70;99.90;;;;;;5048482;28;20044;-79
2022/06/17 00:40:51;;;;;;;0.80;0.80;;;13.70;99.90;;;;;;5048015;28;20512;-79
2022/06/17 00:43:33;;;;;;;2.33;0.80;;;13.70;99.90;;;;;;5049249;28;20449;-79
2022/06/17 00:46:06;;;;;;;1.50;0.90;;;13.70;99.90;;;;;;5041143;28;20068;-79
2022/06/17 00:48:40;;;;;;;2.15;0.80;;;13.70;99.90;;;;;;5065727;28;20138;-78
2022/06/17 00:51:17;;;;;;;0.90;0.70;;;13.70;99.90;;;;;;5048349;28;20041;-78
2022/06/17 00:53:51;;;;;;;1.15;0.70;;;13.70;99.90;;;;;;5049134;28;20143;-78
2022/06/17 00:56:21;;;;;;;1.50;0.75;;;13.70;99.90;;;;;;5070893;28;20064;-78
2022/06/17 00:58:59;;;;;;;0.60;0.60;;;13.70;99.90;;;;;;5058897;28;20083;-78
2022/06/17 01:01:27;;;;;;;0.93;0.52;;;13.70;99.90;;;;;;5048617;28;20041;-78
2022/06/17 01:04:00;;;;;;;0.73;0.63;;;13.60;99.90;;;;;;5048191;28;20041;-78
2022/06/17 01:06:35;;;;;;;2.78;0.70;;;13.60;99.90;;;;;;5049562;28;20278;-78
2022/06/17 01:11:54;;;;;;;1.38;0.93;;;13.60;99.90;;;;;;5041582;28;20049;-78
2022/06/17 01:14:23;;;;;;;2.33;0.63;;;13.60;99.90;;;;;;5070668;28;20043;-79
2022/06/17 01:16:55;;;;;;;1.05;0.63;;;13.60;99.90;;;;;;5061684;28;20169;-79
2022/06/17 01:19:39;;;;;;;3.53;0.70;;;13.60;99.90;;;;;;5049222;28;20475;-79
2022/06/17 01:22:34;;;;;;;0.60;0.60;;;13.60;99.90;;;;;;5042811;28;20419;-79
2022/06/17 01:25:06;;;;;;;0.60;0.60;;;13.60;99.90;;;;;;5069396;28;20401;-78
2022/06/17 01:27:36;;;;;;;1.85;0.75;;;13.60;99.90;;;;;;5046739;28;20366;-78
2022/06/17 01:30:06;;;;;;;2.10;0.68;;;13.60;99.90;;;;;;5020156;28;20049;-78
2022/06/17 01:32:40;;;;;;;1.90;0.60;;;13.60;99.90;;;;;;5055272;28;20060;-79
2022/06/17 01:35:09;;;;;;;0.60;0.60;;;13.60;99.90;;;;;;5044933;28;21508;-78
2022/06/17 01:37:38;;;;;;;2.45;0.60;;;13.60;99.90;;;;;;5037270;28;20049;-79
2022/06/17 01:40:07;;;;;;;0.75;0.60;;;13.70;99.90;;;;;;5029970;28;20045;-78
2022/06/17 01:42:38;;;;;;;0.73;0.70;;;13.70;99.90;;;;;;5046165;28;20052;-79
2022/06/17 01:45:06;;;;;;;1.52;0.70;;;13.70;99.90;;;;;;5046798;28;20045;-79
2022/06/17 01:47:35;;;;;;;0.77;0.50;;;13.80;99.90;;;;;;5049227;28;20041;-78
2022/06/17 01:50:08;;;;;;;1.08;0.50;;;13.80;99.90;;;;;;5031114;28;20455;-79
2022/06/17 01:52:41;;;;;;;0.73;0.73;;;13.80;99.90;;;;;;5032526;28;20056;-79
2022/06/17 01:55:14;;;;;;;1.20;0.68;;;13.80;99.90;;;;;;5044865;28;20046;-79
2022/06/17 01:57:47;;;;;;;0.50;0.50;;;13.90;99.90;;;;;;5052915;28;20053;-79
2022/06/17 02:00:20;;;;;;;1.23;0.60;;;13.90;99.90;;;;;;5051242;28;20130;-79
2022/06/17 02:02:54;;;;;;;1.27;0.60;;;13.90;99.90;;;;;;5049683;28;20086;-79
2022/06/17 02:05:24;;;;;;;1.08;0.60;;;14.00;99.90;;;;;;5032055;28;20056;-79
2022/06/17 02:07:57;;;;;;;0.70;0.70;;;14.00;99.90;;;;;;5027302;28;20044;-78
2022/06/17 02:10:29;;;;;;;2.78;0.77;;;14.00;99.90;;;;;;5051485;28;20041;-78
2022/06/17 02:12:58;;;;;;;0.52;0.52;;;14.10;99.90;;;;;;5050524;28;20043;-78
2022/06/17 02:15:48;;;;;;;2.60;0.60;;;14.10;99.90;;;;;;5038402;28;20122;-78
2022/06/17 02:18:45;;;;;;;0.40;0.40;;;14.30;99.90;;;;;;5041650;28;20144;-76
2022/06/17 02:21:19;;;;;;;0.60;0.50;;;14.30;99.90;;;;;;5047854;28;20073;-76
2022/06/17 02:23:48;;;;;;;0.50;0.50;;;14.40;99.90;;;;;;5044495;28;20045;-76
2022/06/17 02:26:17;;;;;;;1.77;0.63;;;14.40;99.90;;;;;;5031869;28;20535;-76
2022/06/17 02:28:47;;;;;;;1.63;1.10;;;14.30;99.90;;;;;;5048349;28;20099;-76
2022/06/17 02:31:16;;;;;;;0.40;0.40;;;14.30;99.90;;;;;;5039880;28;20124;-76
2022/06/17 02:33:48;;;;;;;0.85;0.40;;;14.20;99.90;;;;;;5046081;28;20143;-76
2022/06/17 02:36:24;;;;;;;1.10;0.70;;;14.20;99.90;;;;;;5051387;28;20045;-76
2022/06/17 02:38:53;;;;;;;0.60;0.60;;;14.20;99.90;;;;;;5052710;28;20053;-77
2022/06/17 02:41:21;;;;;;;1.95;0.60;;;14.20;99.90;;;;;;5050571;28;20520;-77
2022/06/17 02:43:55;;;;;;;0.30;0.30;;;14.20;99.90;;;;;;5051370;28;20053;-77
2022/06/17 02:46:28;;;;;;;0.55;0.55;;;14.30;99.90;;;;;;5065901;28;20122;-76
2022/06/17 02:48:59;;;;;;;0.68;0.68;;;14.30;99.90;;;;;;5050967;28;20063;-76
2022/06/17 02:51:30;;;;;;;0.50;0.50;;;14.30;99.90;;;;;;5049378;28;20056;-76
2022/06/17 02:54:00;;;;;;;0.63;0.55;;;14.40;99.90;;;;;;5052231;28;20538;-76
2022/06/17 02:56:31;;;;;;;1.98;0.50;;;14.40;99.90;;;;;;5051065;28;20504;-76
2022/06/17 02:59:07;;;;;;;0.55;0.50;;;14.50;99.90;;;;;;5050294;28;20057;-78
2022/06/17 03:01:41;;;;;;;1.70;0.70;;;14.60;99.90;;;;;;5047651;28;20513;-79
2022/06/17 03:04:33;;;;;;;2.15;0.30;;;14.70;99.90;;;;;;5037901;28;20073;-79
2022/06/17 03:07:10;;;;;;;0.70;0.40;;;14.70;99.90;;;;;;5051330;28;20049;-78
2022/06/17 03:09:39;;;;;;;0.80;0.60;;;14.60;99.90;;;;;;5049814;28;20045;-78
2022/06/17 03:12:11;;;;;;;0.40;0.40;;;14.60;99.90;;;;;;5050824;28;20049;-76
2022/06/17 03:14:46;;;;;;;1.23;0.40;;;14.60;99.90;;;;;;5050502;28;20095;-77
2022/06/17 03:17:17;;;;;;;1.75;0.52;;;14.50;99.90;;;;;;5048802;28;20147;-77
2022/06/17 03:19:48;;;;;;;5.60;0.82;;;14.50;99.90;;;;;;5050634;28;20049;-78
2022/06/17 03:22:15;;;;;;;0.98;0.68;;;14.50;99.90;;;;;;5050208;28;20377;-75
2022/06/17 03:24:52;;;;;;;3.28;0.70;;;14.60;99.90;;;;;;5050374;28;20500;-75
2022/06/17 03:27:25;;;;;;;1.90;0.70;;;14.60;99.90;;;;;;5048563;28;20055;-76
2022/06/17 03:29:56;;;;;;;4.47;0.80;;;14.70;99.90;;;;;;5050229;28;20045;-75
2022/06/17 03:32:31;;;;;;;1.27;0.63;;;14.60;99.90;;;;;;5046693;28;20049;-78
2022/06/17 03:34:58;;;;;;;2.85;2.17;;;14.60;99.90;;;;;;5051137;28;20491;-77
2022/06/17 03:37:32;;;;;;;1.23;0.57;;;14.60;99.90;;;;;;5049352;28;20056;-77
2022/06/17 03:40:14;;;;;;;0.65;0.65;;;14.60;99.90;;;;;;5051529;28;20118;-77
2022/06/17 03:42:56;;;;;;;9.85;1.77;;;14.50;99.90;;;;;;5050043;28;20531;-76
2022/06/17 03:45:28;;;;;;;1.85;0.70;;;14.50;99.90;;;;;;5048130;28;20055;-76
2022/06/17 03:48:00;;;;;;;0.93;0.32;;;14.50;99.90;;;;;;5049695;28;20111;-76
2022/06/17 03:50:32;;;;;;;1.23;1.10;;;14.50;99.90;;;;;;5048967;28;20069;-76
2022/06/17 03:53:04;;;;;;;3.65;0.60;;;14.60;99.90;;;;;;5049095;28;20150;-77
2022/06/17 03:55:34;;;;;;;1.95;0.70;;;14.60;99.90;;;;;;5061013;28;20057;-77
2022/06/17 03:58:03;;;;;;;1.35;0.50;;;14.70;99.90;;;;;;5054877;28;20533;-77
2022/06/17 04:00:53;;;;;;;1.15;0.77;;;14.80;99.90;;;;;;5048822;28;20194;-77
2022/06/17 04:03:23;;;;;;;1.38;0.98;;;14.90;99.90;;;;;;5048578;28;20053;-78
2022/06/17 04:06:01;;;;;;;2.05;0.93;;;14.90;99.90;;;;;;5046308;28;20057;-77
2022/06/17 04:08:32;;;;;;;2.83;1.00;;;14.80;99.90;;;;;;5013382;28;20057;-77
2022/06/17 04:11:01;;;;;;;4.90;1.10;;;14.80;99.90;;;;;;5025445;28;20056;-77
2022/06/17 04:13:33;;;;;;;;;;;14.80;99.90;;;;;;5045848;28;20049;-76
2022/06/17 04:16:22;;;;;;;3.42;0.80;;;14.80;99.90;;;;;;5044400;28;19925;-76
2022/06/17 04:18:50;;;;;;;0.77;0.77;;;14.80;99.90;;;;;;5049560;28;20041;-76
2022/06/17 04:21:18;;;;;;;0.75;0.75;;;14.80;99.90;;;;;;5049078;28;20045;-76
2022/06/17 04:23:47;;;;;;;0.60;0.60;;;14.80;99.90;;;;;;5048362;28;20060;-76
2022/06/17 04:26:39;;;;;;;3.97;0.70;;;14.80;99.90;;;;;;5027215;28;20406;-76
2022/06/17 04:29:19;;;;;;;1.00;0.73;;;14.80;99.90;;;;;;5049437;28;20618;-77
2022/06/17 04:32:01;;;;;;;2.20;1.00;;;14.80;99.90;;;;;;5047789;28;20502;-76
2022/06/17 04:34:28;;;;;;;0.77;0.55;;;14.80;99.90;;;;;;5045667;28;20551;-76
2022/06/17 04:37:02;;;;;;;0.80;0.70;;;14.90;99.90;;;;;;5031579;28;20057;-76
2022/06/17 04:39:53;;;;;;;0.85;0.55;;;14.90;99.90;;;;;;5042731;28;20053;-76
2022/06/17 04:42:32;;;;;;;2.78;0.70;;;15.00;99.90;;;;;;5047782;28;20540;-76
2022/06/17 04:45:00;;;;;;;2.28;0.70;;;15.00;99.90;;;;;;5049567;28;20429;-76
2022/06/17 04:47:28;;;;;;;2.55;0.80;;;15.10;99.90;;;;;;5048893;28;20048;-76
2022/06/17 04:50:01;;;;;;;2.85;1.15;;;15.20;99.90;;;;;;5047128;28;20049;-76
2022/06/17 04:52:41;;;;;;;4.80;0.60;;;15.20;99.90;;;;;;5048682;28;20102;-76
2022/06/17 04:55:28;;;;;;;1.90;0.88;;;15.30;99.90;;;;;;5049301;28;20052;-76
2022/06/17 04:58:25;;;;;;;0.98;0.90;;;15.30;99.90;;;;;;5044943;28;20060;-76
2022/06/17 05:00:59;;;;;;;3.80;1.00;;;15.50;99.90;;;;;;5046275;28;20485;-76
2022/06/17 05:04:03;;;;;;;1.25;1.05;;;15.60;99.90;;;;;;5051344;28;20082;-76
2022/06/17 05:06:35;;;;;;;1.73;1.10;;;15.70;99.90;;;;;;5052345;28;20045;-76
2022/06/17 05:09:10;;;;;;;8.40;1.60;;;15.60;99.90;;;;;;5046818;28;20124;-76
2022/06/17 05:11:42;;;;;;;1.10;0.93;;;15.50;99.90;;;;;;5032301;28;20516;-75
2022/06/17 05:14:26;;;;;;;1.30;0.60;;;15.40;99.90;;;;;;5049339;28;20048;-77
2022/06/17 05:16:55;;;;;;;2.83;0.80;;;15.40;99.90;;;;;;5053268;28;20057;-77
2022/06/17 05:19:22;;;;;;;3.53;1.05;;;15.50;99.90;;;;;;5046491;28;20405;-77
2022/06/17 05:21:52;;;;;;;5.45;0.90;;;15.80;99.90;;;;;;5032486;28;20064;-78
2022/06/17 05:24:24;;;;;;;;;;;16.20;99.90;;;;;;5056048;28;20406;-79
2022/06/17 05:26:57;;;;;;;2.20;1.10;;;16.50;99.90;;;;;;5046413;28;19928;-80
2022/06/17 05:29:27;;;;;;;;;;;16.80;99.90;;;;;;5037294;28;20053;-79
2022/06/17 05:31:58;;;;;;;6.38;0.93;;;17.00;99.90;;;;;;5041242;28;19936;-80
2022/06/17 05:34:33;;;;;;;3.00;0.80;;;17.20;99.90;;;;;;5052184;28;20049;-81
2022/06/17 05:37:02;;;;;;;4.55;0.75;;;17.40;99.90;;;;;;5047449;28;20056;-80
2022/06/17 05:39:29;;;;;;;2.53;1.17;;;17.40;99.90;;;;;;5032019;28;20382;-79
2022/06/17 05:41:58;;;;;;;1.15;1.13;;;17.30;99.90;;;;;;5050658;28;20044;-79
2022/06/17 05:44:28;;;;;;;1.27;1.17;;;17.30;99.90;;;;;;5050595;28;20048;-80
2022/06/17 05:47:08;;;;;;;2.15;0.80;;;17.50;99.90;;;;;;5039688;28;20091;-79
2022/06/17 05:50:02;;;;;;;2.67;1.00;;;17.90;99.90;;;;;;5045696;28;20190;-79
2022/06/17 05:52:59;;;;;;;1.00;0.63;;;18.40;99.90;;;;;;5044359;28;20206;-79
2022/06/17 05:55:45;;;;;;;2.17;0.70;;;18.50;99.90;;;;;;5049921;28;20274;-79
2022/06/17 05:58:13;;;;;;;2.10;1.35;;;18.40;99.90;;;;;;5052259;28;20114;-79
2022/06/17 06:00:44;;;;;;;1.60;1.02;;;18.00;99.90;;;;;;5052247;28;20144;-79
2022/06/17 06:03:19;;;;;;;3.42;0.95;;;17.50;99.90;;;;;;5052741;28;20409;-80
2022/06/17 06:05:47;;;;;;;2.92;0.60;;;17.00;99.90;;;;;;5049001;28;20044;-79
2022/06/17 06:08:19;;;;;;;1.73;0.60;;;16.60;99.90;;;;;;5041107;28;20052;-78
2022/06/17 06:10:48;;;;;;;2.30;0.52;;;16.30;99.90;;;;;;5048089;28;20045;-78
2022/06/17 06:13:20;;;;;;;0.57;0.57;;;16.20;99.90;;;;;;5045813;28;20429;-82
2022/06/17 06:15:55;;;;;;;0.63;0.60;;;16.20;99.90;;;;;;5039432;28;20525;-82
2022/06/17 06:18:36;;;;;;;2.45;1.85;;;16.20;99.90;;;;;;5052022;28;20049;-81
2022/06/17 06:21:24;;;;;;;2.38;1.02;;;16.30;99.90;;;;;;5052208;28;20045;-79
2022/06/17 06:23:56;;;;;;;1.77;0.80;;;16.40;99.90;;;;;;5044881;28;20460;-78
2022/06/17 06:26:30;;;;;;;3.72;0.80;;;16.40;99.90;;;;;;5042590;28;20052;-79
2022/06/17 06:29:17;;;;;;;4.43;0.47;;;16.30;99.90;;;;;;5044675;28;20048;-78
2022/06/17 06:31:48;;;;;;;6.82;0.55;;;16.20;99.90;;;;;;5045090;28;20050;-78
2022/06/17 06:34:25;;;;;;;1.00;0.77;;;16.00;99.90;;;;;;5030573;28;20095;-75
2022/06/17 06:36:53;;;;;;;1.58;0.70;;;16.00;99.90;;;;;;5044545;28;20103;-75
2022/06/17 06:39:24;;;;;;;2.13;0.85;;;15.90;99.90;;;;;;5057713;28;20512;-75
2022/06/17 06:41:56;;;;;;;3.85;0.90;;;15.90;99.90;;;;;;5032728;28;20076;-77
2022/06/17 06:44:27;;;;;;;4.00;2.70;;;16.00;99.90;;;;;;5028841;28;20247;-76
2022/06/17 06:46:57;;;;;;;4.45;0.70;;;16.20;99.90;;;;;;5047994;28;20049;-80
2022/06/17 06:49:48;;;;;;;2.60;0.70;;;16.50;99.90;;;;;;5055926;28;20048;-81
2022/06/17 06:52:17;;;;;;;3.10;1.38;;;16.70;99.90;;;;;;5069162;28;20052;-81
2022/06/17 06:54:45;;;;;;;12.65;2.33;;;16.80;99.90;;;;;;5059123;28;20045;-80
2022/06/17 06:57:16;;;;;;;0.85;0.70;;;17.10;99.90;;;;;;5050662;28;20057;-80
2022/06/17 06:59:43;;;;;;;2.83;0.70;;;17.20;99.90;;;;;;5050732;28;20053;-79
2022/06/17 07:02:12;;;;;;;5.32;0.95;;;17.10;99.90;;;;;;5048913;28;20065;-79
2022/06/17 07:04:42;;;;;;;1.02;0.90;;;16.80;99.90;;;;;;5048091;28;20053;-81
2022/06/17 07:07:11;;;;;;;3.63;1.00;;;16.60;99.90;;;;;;5050731;28;20461;-80
2022/06/17 07:09:39;;;;;;;3.67;1.20;;;16.40;99.90;;;;;;5051703;28;20044;-79
2022/06/17 07:12:07;;;;;;;4.22;1.52;;;16.30;99.90;;;;;;5048877;28;20041;-82
2022/06/17 07:14:35;;;;;;;1.73;0.90;;;16.30;99.90;;;;;;5044482;28;20254;-81
2022/06/17 07:17:02;;;;;;;2.50;1.10;;;16.10;99.90;;;;;;5030369;28;20107;-81
2022/06/17 07:19:31;;;;;;;1.55;0.75;;;15.90;99.90;;;;;;5050187;28;20397;-81
2022/06/17 07:21:59;;;;;;;4.03;0.98;;;15.90;99.90;;;;;;5052734;28;20532;-80
2022/06/17 07:24:27;;;;;;;1.40;1.10;;;15.80;99.90;;;;;;5035739;28;20415;-80
2022/06/17 07:26:54;;;;;;;3.10;0.93;;;15.70;99.90;;;;;;5042271;28;20103;-83
2022/06/17 07:29:22;;;;;;;2.10;1.20;;;15.70;99.90;;;;;;5036137;28;20061;-80
2022/06/17 07:31:49;;;;;;;0.90;0.90;;;15.70;99.90;;;;;;5051521;28;20417;-83
2022/06/17 07:34:16;;;;;;;0.70;0.60;;;15.70;99.90;;;;;;5045975;28;20068;-83
2022/06/17 07:39:58;;;;;;;4.18;0.90;;;15.90;99.90;;;;;;5041244;28;20052;-82
2022/06/17 07:42:37;;;;;;;3.10;1.13;;;16.10;99.90;;;;;;5031978;28;20420;-84
2022/06/17 07:45:07;;;;;;;1.75;0.95;;;16.70;99.90;;;;;;5029520;28;20057;-81
2022/06/17 07:47:35;;;;;;;1.42;1.00;;;17.00;99.90;;;;;;5044840;28;20416;-82
2022/06/17 07:50:04;;;;;;;0.90;0.60;;;17.10;99.90;;;;;;5049676;28;20116;-82
2022/06/17 07:52:33;;;;;;;1.90;1.10;;;17.00;99.90;;;;;;5048432;28;20391;-82
2022/06/17 07:55:01;;;;;;;2.20;0.90;;;16.90;99.90;;;;;;5042963;28;20451;-82
2022/06/17 07:57:30;;;;;;;7.32;1.10;;;16.80;99.90;;;;;;5047820;28;20048;-84
2022/06/17 07:59:57;;;;;;;2.35;0.90;;;16.70;99.90;;;;;;5046536;28;20049;-84
2022/06/17 08:02:25;;;;;;;2.20;0.70;;;16.80;99.90;;;;;;5031604;28;20041;-81
2022/06/17 08:04:54;;;;;;;4.32;0.95;;;16.80;99.90;;;;;;5031460;28;20049;-83
2022/06/17 08:07:21;;;;;;;12.95;1.98;;;16.80;99.90;;;;;;5051651;28;20060;-83
2022/06/17 08:09:50;;;;;;;2.33;0.93;;;16.80;99.90;;;;;;5031414;28;20584;-81
2022/06/17 08:12:17;;;;;;;5.35;1.67;;;16.70;99.90;;;;;;5059179;28;20049;-82
2022/06/17 08:14:46;;;;;;;5.88;1.10;;;16.60;99.90;;;;;;5040183;28;20103;-82
2022/06/17 08:17:15;;;;;;;3.50;0.90;;;16.40;99.90;;;;;;5043551;28;20041;-82
2022/06/17 08:19:43;;;;;;;1.60;0.85;;;16.30;99.90;;;;;;5039287;28;20068;-81
2022/06/17 08:22:11;;;;;;;3.78;0.63;;;16.10;99.90;;;;;;5028724;28;20041;-81
2022/06/17 08:24:41;;;;;;;9.60;2.50;;;16.00;99.90;;;;;;5060609;28;20056;-83
2022/06/17 08:27:10;;;;;;;2.80;2.55;;;16.00;99.90;;;;;;5047861;28;20521;-81
2022/06/17 08:29:38;;;;;;;3.80;0.80;;;16.20;99.90;;;;;;5048209;28;20056;-83
2022/06/17 08:34:51;;;;;;;2.25;0.80;;;16.60;99.90;;;;;;5043409;28;20183;-77
2022/06/17 08:37:19;;;;;;;6.88;1.35;;;16.70;99.90;;;;;;5049725;28;20072;-78
2022/06/17 08:39:48;;;;;;;1.58;0.98;;;16.70;99.90;;;;;;5050716;28;20400;-78
2022/06/17 08:42:39;;;;;;;3.00;0.70;;;16.70;99.90;;;;;;5048664;28;20516;-78
2022/06/17 08:45:17;;;;;;;1.98;1.05;;;16.50;99.90;;;;;;5049758;28;20059;-78
2022/06/17 08:47:53;;;;;;;2.83;1.00;;;16.40;99.90;;;;;;5048818;28;20484;-79
2022/06/17 08:50:42;;;;;;;3.75;1.02;;;16.20;99.90;;;;;;5045589;28;20057;-79
2022/06/17 08:53:54;;;;;;;5.00;1.48;;;16.10;99.90;;;;;;5032096;28;20103;-77
2022/06/17 08:56:29;;;;;;;2.67;0.98;;;15.90;99.90;;;;;;5026944;28;20148;-77
2022/06/17 08:59:06;;;;;;;4.38;1.08;;;15.80;99.90;;;;;;5032802;28;20442;-77
2022/06/17 09:01:42;;;;;;;3.22;1.02;;;15.80;99.90;;;;;;5038496;28;20305;-78
2022/06/17 09:04:30;;;;;;;2.80;0.90;;;15.80;99.90;;;;;;5044933;28;20050;-78
2022/06/17 09:07:10;;;;;;;3.58;1.23;;;16.00;99.90;;;;;;5039350;28;20049;-78
2022/06/17 09:10:06;;;;;;;4.43;1.15;;;16.40;99.90;;;;;;5053479;28;20059;-76
2022/06/17 09:12:46;;;;;;;1.85;0.80;;;16.70;99.90;;;;;;5044902;28;20073;-76
2022/06/17 09:15:23;;;;;;;3.35;1.00;;;16.80;99.90;;;;;;5049105;28;20053;-77
2022/06/17 09:17:59;;;;;;;0.77;0.77;;;16.80;99.90;;;;;;5042370;28;20107;-77
2022/06/17 09:20:36;;;;;;;0.65;0.65;;;16.70;99.90;;;;;;5048269;28;20060;-87
2022/06/17 09:23:07;;;;;;;4.15;1.45;;;16.70;99.90;;;;;;5004867;28;20127;-88
2022/06/17 09:25:40;;;;;;;2.35;0.70;;;16.70;99.90;;;;;;5032764;28;20485;-89
2022/06/17 09:28:14;;;;;;;1.42;1.08;;;16.90;99.90;;;;;;5050459;28;20076;-89
2022/06/17 09:30:48;;;;;;;5.57;1.23;;;17.10;99.90;;;;;;5045547;28;20099;-86
2022/06/17 09:33:22;;;;;;;6.97;1.10;;;17.10;99.90;;;;;;5051856;28;20729;-86
2022/06/17 09:35:54;;;;;;;2.85;0.80;;;16.90;99.90;;;;;;5041273;28;20127;-88
2022/06/17 09:38:26;;;;;;;1.20;0.82;;;16.60;99.90;;;;;;5055586;28;20072;-82
2022/06/17 09:40:56;;;;;;;1.02;0.82;;;16.30;99.90;;;;;;5045060;28;20103;-77
2022/06/17 09:43:31;;;;;;;1.90;1.05;;;16.00;99.90;;;;;;5046824;28;20091;-79
2022/06/17 09:46:09;;;;;;;3.42;0.80;;;15.80;99.90;;;;;;5047852;28;20405;-78
2022/06/17 09:48:50;;;;;;;1.58;0.90;;;15.60;99.90;;;;;;5041590;28;20125;-81
2022/06/17 09:51:21;;;;;;;3.25;2.95;;;15.50;99.90;;;;;;5043197;28;20532;-78
2022/06/17 09:53:52;;;;;;;2.03;1.30;;;15.40;99.90;;;;;;5064364;28;20057;-77
2022/06/17 09:56:25;;;;;;;4.22;0.90;;;15.50;99.90;;;;;;5044451;28;20044;-78
2022/06/17 09:59:02;;;;;;;5.43;1.08;;;15.60;99.90;;;;;;5035539;28;20061;-77
2022/06/17 10:01:32;;;;;;;0.75;0.73;;;15.80;99.90;;;;;;5040303;28;20041;-77
2022/06/17 10:03:59;;;;;;;2.20;1.20;;;16.20;99.90;;;;;;5049408;28;20069;-76
2022/06/17 10:06:36;;;;;;;1.00;1.00;;;16.50;99.90;;;;;;5039284;28;20045;-77
2022/06/17 10:09:22;;;;;;;1.33;1.13;;;16.60;99.90;;;;;;5052481;28;20111;-76
2022/06/17 10:11:56;;;;;;;4.53;1.20;;;16.70;99.90;;;;;;5044481;28;20060;-75
2022/06/17 10:14:38;;;;;;;1.85;0.80;;;16.50;99.90;;;;;;5042703;28;20049;-76
2022/06/17 10:20:15;;;;;;;2.35;0.93;;;15.90;99.90;;;;;;5046606;28;20140;-77
2022/06/17 10:22:51;;;;;;;1.48;0.75;;;15.80;99.90;;;;;;5039271;28;20539;-75
2022/06/17 10:25:33;;;;;;;2.35;0.95;;;15.70;99.90;;;;;;5042372;28;20450;-74
2022/06/17 10:28:23;;;;;;;1.20;1.10;;;15.70;99.90;;;;;;5049074;28;20540;-75
2022/06/17 10:30:59;;;;;;;1.75;1.65;;;15.70;99.90;;;;;;5061409;28;20425;-76
2022/06/17 10:33:32;;;;;;;4.80;1.30;;;15.70;99.90;;;;;;5047048;28;20049;-75
2022/06/17 10:36:00;;;;;;;2.50;1.33;;;15.70;99.90;;;;;;5041515;28;20077;-79
2022/06/17 10:38:33;;;;;;;2.97;1.38;;;15.70;99.90;;;;;;5043699;28;20135;-75
2022/06/17 10:41:01;;;;;;;3.22;1.02;;;15.70;99.90;;;;;;5051205;28;20060;-75
2022/06/17 10:43:33;;;;;;;1.27;1.05;;;15.60;99.90;;;;;;5032301;28;20053;-77
2022/06/17 10:46:01;;;;;;;4.38;1.05;;;15.60;99.90;;;;;;5046984;28;20068;-77
2022/06/17 10:48:34;;;;;;;1.05;0.90;;;15.50;99.90;;;;;;5053219;28;20103;-77
2022/06/17 10:51:04;;;;;;;5.85;1.45;;;15.30;99.90;;;;;;5056447;28;20044;-76
2022/06/17 10:53:39;;;;;;;4.32;1.13;;;15.30;99.90;;;;;;5043086;28;20500;-77
2022/06/17 10:56:12;;;;;;;3.10;0.90;;;15.30;99.90;;;;;;5040862;28;20536;-74
2022/06/17 10:58:56;;;;;;;1.30;0.80;;;15.30;99.90;;;;;;5039822;28;20521;-76
2022/06/17 11:01:25;;;;;;;1.92;0.98;;;15.30;99.90;;;;;;5051470;28;20447;-77
2022/06/17 11:04:13;;;;;;;1.15;1.00;;;15.30;99.90;;;;;;5049052;28;20091;-75
2022/06/17 11:06:50;;;;;;;3.63;1.27;;;15.40;99.90;;;;;;5040443;28;20448;-76
2022/06/17 11:09:25;;;;;;;3.03;1.00;;;15.50;99.90;;;;;;5045645;28;20393;-77
2022/06/17 11:12:06;;;;;;;2.13;1.83;;;15.50;99.90;;;;;;5037046;28;20077;-77
2022/06/17 11:14:40;;;;;;;2.78;0.98;;;15.50;99.90;;;;;;5023141;28;20057;-76
2022/06/17 11:17:19;;;;;;;2.95;1.20;;;15.60;99.90;;;;;;5042153;28;20099;-77
2022/06/17 11:19:52;;;;;;;4.18;2.35;;;15.80;99.90;;;;;;5035877;28;20053;-78
2022/06/17 11:22:30;;;;;;;14.68;3.13;;;16.00;99.90;;;;;;5043822;28;20135;-78
2022/06/17 11:25:02;;;;;;;2.38;1.17;;;16.30;99.90;;;;;;5066783;28;20059;-77
2022/06/17 11:27:34;;;;;;;2.45;1.30;;;16.50;99.90;;;;;;5050207;28;20059;-77
2022/06/17 11:30:22;;;;;;;3.72;1.20;;;16.70;99.90;;;;;;5046947;28;20060;-79
2022/06/17 11:32:50;;;;;;;5.18;1.50;;;16.80;99.90;;;;;;5036183;28;20045;-78
2022/06/17 11:35:25;;;;;;;2.13;1.10;;;17.20;99.90;;;;;;5046293;28;20511;-80
2022/06/17 11:37:55;;;;;;;1.58;1.10;;;17.60;99.90;;;;;;5040287;28;20048;-79
2022/06/17 11:40:26;;;;;;;3.47;1.10;;;17.90;99.90;;;;;;5034268;28;20049;-78
2022/06/17 11:42:56;;;;;;;5.90;1.33;;;18.00;99.90;;;;;;5040486;28;20067;-78
2022/06/17 11:45:32;;;;;;;4.22;1.10;;;17.90;99.90;;;;;;5036041;28;20057;-77
2022/06/17 11:48:02;;;;;;;2.30;1.23;;;17.70;99.90;;;;;;5030056;28;20055;-77
2022/06/17 11:50:35;;;;;;;5.88;2.10;;;17.50;99.90;;;;;;5031182;28;20049;-76
2022/06/17 11:53:06;;;;;;;4.38;1.40;;;17.20;99.90;;;;;;5036598;28;20049;-76
2022/06/17 11:55:43;;;;;;;4.15;1.00;;;17.10;99.90;;;;;;5064727;28;20048;-77
2022/06/17 11:58:11;;;;;;;1.23;1.13;;;17.00;99.90;;;;;;5051285;28;20103;-78
2022/06/17 12:00:46;;;;;;;2.00;1.13;;;16.90;99.90;;;;;;5047312;28;20040;-78
2022/06/17 12:03:16;;;;;;;3.00;1.15;;;17.00;99.90;;;;;;5041797;28;20140;-81
2022/06/17 12:05:56;;;;;;;6.25;1.15;;;17.20;99.90;;;;;;5031350;28;20049;-81
2022/06/17 12:08:28;;;;;;;2.72;1.00;;;17.40;99.90;;;;;;5046787;28;20060;-80
2022/06/17 12:11:01;;;;;;;2.47;1.13;;;17.70;99.90;;;;;;5043749;28;20052;-77
2022/06/17 12:13:34;;;;;;;4.93;1.20;;;18.00;99.90;;;;;;5046301;28;20053;-77
2022/06/17 12:16:08;;;;;;;3.60;1.08;;;18.60;99.90;;;;;;5047570;28;20049;-78
2022/06/17 12:18:39;;;;;;;3.67;1.50;;;19.20;99.90;;;;;;5045532;28;20056;-80
2022/06/17 12:21:19;;;;;;;3.80;0.88;;;19.80;99.90;;;;;;5044100;28;20048;-79
2022/06/17 12:23:52;;;;;;;7.93;1.30;;;20.20;99.90;;;;;;5036728;28;20049;-76
2022/06/17 12:26:23;;;;;;;3.92;0.73;;;20.60;99.90;;;;;;5047802;28;20064;-78
2022/06/17 12:29:00;;;;;;;0.90;0.60;;;21.00;98.60;;;;;;5063315;28;20059;-77
2022/06/17 12:31:38;;;;;;;5.00;0.80;;;21.10;97.90;;;;;;5067828;28;20135;-80
2022/06/17 12:34:13;;;;;;;2.63;0.73;;;21.00;97.10;;;;;;5068446;28;20079;-77
2022/06/17 12:36:47;;;;;;;2.90;1.00;;;20.60;98.20;;;;;;5049449;28;20548;-77
2022/06/17 12:39:25;;;;;;;0.70;0.70;;;20.30;98.50;;;;;;5050072;28;20056;-77
2022/06/17 12:42:03;;;;;;;5.18;1.40;;;20.00;99.90;;;;;;5069261;28;20076;-77
2022/06/17 12:44:43;;;;;;;5.75;0.80;;;19.80;99.90;;;;;;5069127;28;20147;-76
2022/06/17 12:47:17;;;;;;;7.10;0.77;;;19.40;99.90;;;;;;5069178;28;20144;-74
2022/06/17 12:55:49;;;;;;;5.95;1.20;;;17.90;99.90;;;;;;5046019;28;20056;-75
2022/06/17 12:58:26;;;;;;;2.50;1.10;;;17.40;99.90;;;;;;5048068;28;20075;-76
2022/06/17 13:01:03;;;;;;;1.13;1.02;;;17.10;99.90;;;;;;5049625;28;20053;-74
2022/06/17 13:03:58;;;;;;;3.63;0.90;;;17.00;99.90;;;;;;5050155;28;20065;-78
2022/06/17 13:06:37;;;;;;;1.08;0.98;;;16.90;99.90;;;;;;5037807;28;20053;-79
2022/06/17 13:09:13;;;;;;;1.45;0.98;;;16.80;99.90;;;;;;5055184;28;20059;-78
2022/06/17 13:11:51;;;;;;;1.73;1.02;;;16.80;99.90;;;;;;5048775;28;20045;-78
2022/06/17 13:14:26;;;;;;;3.15;0.95;;;16.90;99.90;;;;;;5029951;28;20041;-76
2022/06/17 13:17:01;;;;;;;8.93;1.15;;;17.00;99.90;;;;;;5044186;28;20049;-77
2022/06/17 13:19:38;;;;;;;2.15;0.90;;;16.90;99.90;;;;;;5049503;28;20081;-77
2022/06/17 13:22:12;;;;;;;1.95;1.00;;;16.80;99.90;;;;;;5029354;28;20057;-80
2022/06/17 13:24:47;;;;;;;3.20;1.10;;;16.80;99.90;;;;;;5046410;28;20077;-78
2022/06/17 13:27:20;;;;;;;2.72;1.13;;;16.90;99.90;;;;;;5043464;28;20612;-79
2022/06/17 13:29:51;;;;;;;;;;;16.70;99.90;;;;;;5030551;28;20060;-77
2022/06/17 13:32:23;;;;;;;4.68;1.65;;;16.60;99.90;;;;;;5037990;28;19925;-77
2022/06/17 13:34:54;;;;;;;27.42;16.38;;;16.50;99.90;;;;;;5045220;28;20044;-77
2022/06/17 13:37:27;;;;;;;49.42;24.00;;;16.50;99.90;;;;;;5047837;28;20245;-78
2022/06/17 13:40:02;;;;;;;8.32;4.10;;;16.40;99.90;;;;;;5030703;28;20100;-81